Jomi — C6VK4 — position and weather

sailwx.info

Track history (hours):
 
Tides and Currents Weather Stations Pressure Air Temp Water Temp Dewpoint Dewpoint Depression Visibility Wind Speed Wind Dir Waves Ship Positions

Jomi

Last reported at 2016-Sep-29 16:33 UTC. Time now 2016-Sep-29 18:44 UTC.
Position N 59°27' E 010°23'.

Length 88 m; draft 6 m.

Type: Cargo ship. MMSI: 309701000.

Date/timePositionNaut miles runAvg speedWind from/ knotsBaromVisibWave heightAir tempDewpointWater temp
2016-Sep-29 16:33N 59°27' E 010°23'8 8.5
2016-Sep-29 15:33N 59°35' E 010°26'7 0.2
2016-Sep-28 08:33N 59°29' E 010°28'38 7.6
2016-Sep-28 03:33N 58°56' E 009°52'58 1.4
2016-Sep-26 11:33N 58°13' E 008°36'76 8.4
2016-Sep-26 02:32N 57°60' E 006°14'8 8.6
2016-Sep-26 01:33N 58°01' E 005°58'279 8.4
2016-Sep-24 16:33N 58°42' W 002°47'2211.1
2016-Sep-24 14:33N 58°42' W 003°30'2311.4
2016-Sep-24 12:33N 58°41' W 004°14'191 8.3
2016-Sep-23 13:33N 55°48' W 006°44'30 7.5
2016-Sep-23 09:34N 55°25' W 006°09'38 1.3
2016-Sep-22 03:08N 55°08' W 005°09'23 8.9
2016-Sep-22 00:33N 54°45' W 005°11'8 8.4
2016-Sep-21 23:34N 54°37' W 005°07'9 9.0
2016-Sep-21 22:34N 54°28' W 005°03'62 9.8
2016-Sep-21 16:15N 53°41' W 003°55'35 5.2
2016-Sep-21 09:31N 53°24' W 003°03'0 0.0
2016-Sep-21 08:31N 53°24' W 003°03'0 0.0
2016-Sep-21 03:31N 53°24' W 003°03'0 0.0
2016-Sep-21 02:31N 53°24' W 003°03'0 0.0
2016-Sep-20 17:31N 53°24' W 003°03'0 0.0
2016-Sep-20 14:31N 53°24' W 003°03'0 0.0
2016-Sep-20 13:31N 53°24' W 003°03'0 0.0
2016-Sep-20 10:33N 53°24' W 003°03'0 0.0
2016-Sep-20 08:33N 53°24' W 003°03'0 0.0
2016-Sep-20 07:27N 53°24' W 003°03'0 0.0
2016-Sep-20 06:33N 53°24' W 003°03'0 0.0
2016-Sep-20 02:33N 53°24' W 003°03'0 0.0
2016-Sep-19 23:33N 53°24' W 003°03'0 0.0
2016-Sep-19 19:29N 53°24' W 003°03'0 0.0
2016-Sep-19 18:32N 53°24' W 003°03'  
Track history (hours):
 
Tides and Currents Weather Stations Pressure Air Temp Water Temp Dewpoint Dewpoint Depression Visibility Wind Speed Wind Dir Waves Ship Positions

Jomi

Last reported at 2016-Sep-29 16:33 UTC. Time now 2016-Sep-29 18:44 UTC.
Position N 59°27' E 010°23'.

Length 88 m; draft 6 m.

Type: Cargo ship. MMSI: 309701000.

Date/timePositionNaut miles runAvg speedWind from/ knotsBaromVisibWave heightAir tempDewpointWater temp
2016-Sep-29 16:33N 59°27' E 010°23'8 8.5
2016-Sep-29 15:33N 59°35' E 010°26'7 0.2
2016-Sep-28 08:33N 59°29' E 010°28'38 7.6
2016-Sep-28 03:33N 58°56' E 009°52'58 1.4
2016-Sep-26 11:33N 58°13' E 008°36'76 8.4
2016-Sep-26 02:32N 57°60' E 006°14'8 8.6
2016-Sep-26 01:33N 58°01' E 005°58'279 8.4
2016-Sep-24 16:33N 58°42' W 002°47'2211.1
2016-Sep-24 14:33N 58°42' W 003°30'2311.4
2016-Sep-24 12:33N 58°41' W 004°14'191 8.3
2016-Sep-23 13:33N 55°48' W 006°44'30 7.5
2016-Sep-23 09:34N 55°25' W 006°09'38 1.3
2016-Sep-22 03:08N 55°08' W 005°09'23 8.9
2016-Sep-22 00:33N 54°45' W 005°11'8 8.4
2016-Sep-21 23:34N 54°37' W 005°07'9 9.0
2016-Sep-21 22:34N 54°28' W 005°03'62 9.8
2016-Sep-21 16:15N 53°41' W 003°55'35 5.2
2016-Sep-21 09:31N 53°24' W 003°03'0 0.0
2016-Sep-21 08:31N 53°24' W 003°03'0 0.0
2016-Sep-21 03:31N 53°24' W 003°03'0 0.0
2016-Sep-21 02:31N 53°24' W 003°03'0 0.0
2016-Sep-20 17:31N 53°24' W 003°03'0 0.0
2016-Sep-20 14:31N 53°24' W 003°03'0 0.0
2016-Sep-20 13:31N 53°24' W 003°03'0 0.0
2016-Sep-20 10:33N 53°24' W 003°03'0 0.0
2016-Sep-20 08:33N 53°24' W 003°03'0 0.0
2016-Sep-20 07:27N 53°24' W 003°03'0 0.0
2016-Sep-20 06:33N 53°24' W 003°03'0 0.0
2016-Sep-20 02:33N 53°24' W 003°03'0 0.0
2016-Sep-19 23:33N 53°24' W 003°03'0 0.0
2016-Sep-19 19:29N 53°24' W 003°03'0 0.0
2016-Sep-19 18:32N 53°24' W 003°03'  

Dump ship's entire track history